createdAt,value
2019-01-14T00:01:33.847Z,-4.33
2019-01-14T00:04:03.439Z,-4.04
2019-01-14T00:06:32.844Z,-3.94
2019-01-14T00:09:02.266Z,-4.09
2019-01-14T00:11:31.691Z,-4.08
2019-01-14T00:14:01.104Z,-3.99
2019-01-14T00:16:30.549Z,-3.92
2019-01-14T00:18:59.955Z,-3.99
2019-01-14T00:21:29.309Z,-4.00
2019-01-14T00:23:58.688Z,-4.02
2019-01-14T00:26:28.213Z,-3.89
2019-01-14T00:28:57.555Z,-3.90
2019-01-14T00:31:26.984Z,-3.95
2019-01-14T00:33:56.400Z,-3.90
2019-01-14T00:36:25.852Z,-3.78
2019-01-14T00:38:55.235Z,-3.83
2019-01-14T00:41:24.630Z,-3.87
2019-01-14T00:43:53.925Z,-4.02
2019-01-14T00:46:23.398Z,-4.25
2019-01-14T00:48:52.716Z,-4.32
2019-01-14T00:51:22.100Z,-4.28
2019-01-14T00:53:51.762Z,-4.27
2019-01-14T00:56:21.149Z,-4.21
2019-01-14T00:58:50.449Z,-4.20
2019-01-14T01:01:19.893Z,-4.15
2019-01-14T01:03:49.267Z,-4.25
2019-01-14T01:06:24.541Z,-4.26
2019-01-14T01:08:48.299Z,-4.26
2019-01-14T01:11:17.808Z,-4.39
2019-01-14T01:13:47.951Z,-4.50
2019-01-14T01:16:17.738Z,-4.59
2019-01-14T01:18:47.259Z,-4.69
2019-01-14T01:21:16.891Z,-4.53
2019-01-14T01:23:46.470Z,-4.57
2019-01-14T01:26:16.192Z,-4.62
2019-01-14T01:28:45.876Z,-4.54
2019-01-14T01:31:15.375Z,-4.51
2019-01-14T01:33:44.992Z,-4.67
2019-01-14T01:36:14.653Z,-4.61
2019-01-14T01:38:44.236Z,-4.61
2019-01-14T01:41:13.946Z,-4.61
2019-01-14T01:43:43.331Z,-4.66
2019-01-14T01:46:12.735Z,-4.60
2019-01-14T01:48:42.366Z,-4.59
2019-01-14T01:51:12.160Z,-4.67
2019-01-14T01:53:41.675Z,-4.62
2019-01-14T01:56:11.389Z,-4.61
2019-01-14T01:58:41.028Z,-4.61
2019-01-14T02:01:10.868Z,-4.64
2019-01-14T02:03:40.788Z,-4.57
2019-01-14T02:06:10.228Z,-4.52
2019-01-14T02:08:39.596Z,-4.60
2019-01-14T02:11:09.391Z,-4.62
2019-01-14T02:13:38.968Z,-4.63
2019-01-14T02:16:08.777Z,-4.57
2019-01-14T02:18:38.453Z,-4.52
2019-01-14T02:21:08.213Z,-4.45
2019-01-14T02:23:38.022Z,-4.42
2019-01-14T02:26:07.739Z,-4.37
2019-01-14T02:28:37.194Z,-4.25
2019-01-14T02:31:06.633Z,-4.29
2019-01-14T02:33:36.464Z,-4.25
2019-01-14T02:36:05.898Z,-4.17
2019-01-14T02:38:35.452Z,-4.22
2019-01-14T02:41:04.997Z,-4.26
2019-01-14T02:43:34.563Z,-4.24
2019-01-14T02:46:03.984Z,-4.32
2019-01-14T02:48:33.535Z,-4.49
2019-01-14T02:51:02.954Z,-4.59
2019-01-14T02:53:32.728Z,-4.71
2019-01-14T02:56:02.237Z,-4.70
2019-01-14T02:58:31.898Z,-4.80
2019-01-14T03:01:01.407Z,-4.72
2019-01-14T03:03:31.792Z,-4.77
2019-01-14T03:06:01.470Z,-4.78
2019-01-14T03:08:31.166Z,-4.73
2019-01-14T03:11:00.719Z,-4.66
2019-01-14T03:13:30.143Z,-4.70
2019-01-14T03:15:59.826Z,-4.75
2019-01-14T03:18:29.519Z,-4.78
2019-01-14T03:20:59.194Z,-4.93
2019-01-14T03:23:28.922Z,-4.95
2019-01-14T03:25:58.567Z,-4.89
2019-01-14T03:28:27.918Z,-4.96
2019-01-14T03:30:57.376Z,-4.95
2019-01-14T03:33:27.181Z,-4.92
2019-01-14T03:35:56.804Z,-4.88
2019-01-14T03:38:26.674Z,-4.92
2019-01-14T03:40:56.448Z,-4.94
2019-01-14T03:43:25.951Z,-4.97
2019-01-14T03:45:55.672Z,-5.03
2019-01-14T03:48:26.377Z,-5.07
2019-01-14T03:50:55.917Z,-5.14
2019-01-14T03:53:25.633Z,-5.04
2019-01-14T03:55:55.436Z,-5.06
2019-01-14T03:58:25.158Z,-5.13
2019-01-14T04:00:54.728Z,-5.23
2019-01-14T04:03:24.494Z,-5.19
2019-01-14T04:05:54.183Z,-5.10
2019-01-14T04:08:23.827Z,-5.32
2019-01-14T04:10:53.347Z,-5.27
2019-01-14T04:13:22.808Z,-5.42
2019-01-14T04:15:52.310Z,-5.73
2019-01-14T04:18:21.854Z,-5.69
2019-01-14T04:20:51.420Z,-5.98
2019-01-14T04:23:21.091Z,-5.89
2019-01-14T04:25:50.726Z,-5.80
2019-01-14T04:28:20.451Z,-5.74
2019-01-14T04:30:50.161Z,-5.80
2019-01-14T04:33:19.936Z,-5.78
2019-01-14T04:35:49.786Z,-5.84
2019-01-14T04:38:19.399Z,-5.80
2019-01-14T04:40:49.172Z,-5.77
2019-01-14T04:43:18.710Z,-5.88
2019-01-14T04:45:48.555Z,-5.93
2019-01-14T04:48:18.031Z,-5.87
2019-01-14T04:50:47.731Z,-5.63
2019-01-14T04:53:17.396Z,-5.55
2019-01-14T04:55:46.753Z,-5.46
2019-01-14T04:58:17.120Z,-5.42
2019-01-14T05:00:46.812Z,-5.46
2019-01-14T05:03:16.711Z,-5.35
2019-01-14T05:05:46.460Z,-5.51
2019-01-14T05:08:15.962Z,-5.27
2019-01-14T05:10:45.634Z,-5.25
2019-01-14T05:13:15.306Z,-5.36
2019-01-14T05:15:45.268Z,-5.27
2019-01-14T05:18:14.757Z,-5.43
2019-01-14T05:20:44.259Z,-5.38
2019-01-14T05:23:13.841Z,-5.41
2019-01-14T05:25:43.383Z,-5.30
2019-01-14T05:28:12.898Z,-5.19
2019-01-14T05:30:42.545Z,-5.11
2019-01-14T05:33:12.252Z,-5.12
2019-01-14T05:35:41.721Z,-5.00
2019-01-14T05:38:11.311Z,-5.05
2019-01-14T05:40:41.096Z,-4.71
2019-01-14T05:43:10.642Z,-4.84
2019-01-14T05:45:40.280Z,-4.86
2019-01-14T05:48:10.023Z,-4.65
2019-01-14T05:50:39.662Z,-4.71
2019-01-14T05:53:09.518Z,-4.79
2019-01-14T05:55:38.973Z,-4.78
2019-01-14T05:58:08.694Z,-4.95
2019-01-14T06:00:50.109Z,-5.03
2019-01-14T06:03:19.692Z,-4.96
2019-01-14T06:05:49.383Z,-5.04
2019-01-14T06:08:20.445Z,-4.99
2019-01-14T06:10:49.133Z,-5.04
2019-01-14T06:13:18.780Z,-4.97
2019-01-14T06:15:48.409Z,-5.01
2019-01-14T06:18:18.124Z,-5.03
2019-01-14T06:20:47.869Z,-4.94
2019-01-14T06:23:17.665Z,-4.96
2019-01-14T06:25:47.789Z,-4.50
2019-01-14T06:28:17.267Z,-4.58
2019-01-14T06:30:46.912Z,-4.59
2019-01-14T06:33:16.420Z,-4.58
2019-01-14T06:35:45.942Z,-4.69
2019-01-14T06:38:16.470Z,-4.50
2019-01-14T06:40:46.083Z,-4.38
2019-01-14T06:43:15.784Z,-4.30
2019-01-14T06:45:45.428Z,-4.26
2019-01-14T06:48:14.999Z,-4.29
2019-01-14T06:50:44.585Z,-4.25
2019-01-14T06:53:14.387Z,-4.15
2019-01-14T06:55:44.041Z,-4.11
2019-01-14T06:58:13.532Z,-4.08
2019-01-14T07:00:43.334Z,-3.95
2019-01-14T07:03:13.044Z,-3.86
2019-01-14T07:05:42.719Z,-3.64
2019-01-14T07:08:12.222Z,-3.62
2019-01-14T07:10:41.827Z,-3.57
2019-01-14T07:13:12.342Z,-3.55
2019-01-14T07:15:41.956Z,-3.48
2019-01-14T07:18:11.421Z,-3.41
2019-01-14T07:20:41.040Z,-3.31
2019-01-14T07:23:10.674Z,-3.27
2019-01-14T07:25:40.366Z,-3.15
2019-01-14T07:28:09.829Z,-3.00
2019-01-14T07:30:39.744Z,-2.81
2019-01-14T07:33:09.354Z,-2.69
2019-01-14T07:35:39.031Z,-2.62
2019-01-14T07:38:08.963Z,-2.59
2019-01-14T07:40:38.566Z,-2.58
2019-01-14T07:43:08.333Z,-2.37
2019-01-14T07:45:38.214Z,-2.58
2019-01-14T07:48:07.868Z,-2.65
2019-01-14T07:50:37.271Z,-2.63
2019-01-14T07:53:07.272Z,-2.91
2019-01-14T07:55:36.831Z,-2.70
2019-01-14T07:58:06.375Z,-2.81
2019-01-14T08:00:35.860Z,-2.66
2019-01-14T08:03:05.369Z,-2.58
2019-01-14T08:05:35.097Z,-2.46
2019-01-14T08:08:04.875Z,-2.50
2019-01-14T08:10:34.642Z,-2.40
2019-01-14T08:13:04.091Z,-2.35
2019-01-14T08:15:33.770Z,-2.36
2019-01-14T08:18:04.972Z,-2.23
2019-01-14T08:20:35.521Z,-2.01
2019-01-14T08:23:07.992Z,-1.99
2019-01-14T08:25:37.803Z,-1.96
2019-01-14T08:28:08.161Z,-1.80
2019-01-14T08:30:37.693Z,-1.71
2019-01-14T08:33:07.756Z,-1.52
2019-01-14T08:35:37.622Z,-1.27
2019-01-14T08:38:07.411Z,-1.15
2019-01-14T08:40:37.264Z,-0.99
2019-01-14T08:43:06.866Z,-1.06
2019-01-14T08:45:36.490Z,-0.83
2019-01-14T08:48:06.170Z,-0.87
2019-01-14T08:50:35.753Z,-0.66
2019-01-14T08:53:05.141Z,-0.91
2019-01-14T08:55:34.751Z,-0.75
2019-01-14T08:58:06.909Z,-0.56
2019-01-14T09:00:36.725Z,-0.70
2019-01-14T09:03:06.212Z,-0.50
2019-01-14T09:05:36.047Z,-0.58
2019-01-14T09:08:05.647Z,-0.55
2019-01-14T09:10:35.297Z,-0.52
2019-01-14T09:13:04.787Z,-0.60
2019-01-14T09:15:35.384Z,-0.47
2019-01-14T09:18:05.005Z,-0.62
2019-01-14T09:20:34.960Z,-0.55
2019-01-14T09:23:04.798Z,-0.79
2019-01-14T09:25:34.595Z,-0.59
2019-01-14T09:28:04.122Z,-0.83
2019-01-14T09:30:33.973Z,-0.59
2019-01-14T09:33:03.259Z,-0.56
2019-01-14T09:35:32.800Z,-0.34
2019-01-14T09:38:02.280Z,-0.37
2019-01-14T09:40:31.808Z,-0.32
2019-01-14T09:43:01.275Z,-0.21
2019-01-14T09:45:30.901Z,-0.31
2019-01-14T09:48:00.539Z,-0.43
2019-01-14T09:50:31.115Z,-0.30
2019-01-14T09:53:00.723Z,-0.45
2019-01-14T09:55:30.340Z,-0.28
2019-01-14T09:58:00.048Z,-0.30
2019-01-14T10:00:29.747Z,-0.42
2019-01-14T10:02:59.547Z,0.09
2019-01-14T10:05:29.100Z,0.24
2019-01-14T10:07:58.718Z,-0.10
2019-01-14T10:10:28.553Z,-0.07
2019-01-14T10:12:58.365Z,0.51
2019-01-14T10:15:28.157Z,0.47
2019-01-14T10:18:00.311Z,0.32
2019-01-14T10:20:29.899Z,0.01
2019-01-14T10:22:59.564Z,0.18
2019-01-14T10:25:29.205Z,0.48
2019-01-14T10:27:58.719Z,0.51
2019-01-14T10:30:28.434Z,0.52
2019-01-14T10:32:57.995Z,0.61
2019-01-14T10:35:27.671Z,0.53
2019-01-14T10:37:57.289Z,0.57
2019-01-14T10:40:27.187Z,0.65
2019-01-14T10:42:57.021Z,0.76
2019-01-14T10:45:26.523Z,0.74
2019-01-14T10:47:57.568Z,0.75
2019-01-14T10:50:27.789Z,0.61
2019-01-14T10:52:57.386Z,0.57
2019-01-14T10:55:27.148Z,0.44
2019-01-14T10:57:57.384Z,0.31
2019-01-14T11:00:29.352Z,0.31
2019-01-14T11:02:59.532Z,0.24
2019-01-14T11:05:30.661Z,0.20
2019-01-14T11:08:00.283Z,0.64
2019-01-14T11:10:30.115Z,0.73
2019-01-14T11:12:59.770Z,0.40
2019-01-14T11:15:29.480Z,0.00
2019-01-14T11:17:59.029Z,-0.27
2019-01-14T11:20:30.653Z,-0.08
2019-01-14T11:23:01.069Z,0.04
2019-01-14T11:25:30.817Z,0.15
2019-01-14T11:28:00.466Z,0.20
2019-01-14T11:30:31.816Z,0.35
2019-01-14T11:33:01.343Z,0.28
2019-01-14T11:35:30.967Z,0.20
2019-01-14T11:38:00.466Z,0.26
2019-01-14T11:40:34.499Z,0.50
2019-01-14T11:43:04.199Z,0.80
2019-01-14T11:45:33.651Z,1.10
2019-01-14T11:48:03.305Z,1.21
2019-01-14T11:50:32.898Z,1.34
2019-01-14T11:53:02.348Z,0.92
2019-01-14T11:55:31.970Z,1.15
2019-01-14T11:58:01.407Z,1.24
2019-01-14T12:00:36.547Z,1.22
2019-01-14T12:03:00.771Z,0.89
2019-01-14T12:05:30.345Z,0.45
2019-01-14T12:08:00.068Z,0.45
2019-01-14T12:10:29.555Z,0.41
2019-01-14T12:12:59.169Z,0.43
2019-01-14T12:15:28.836Z,0.62
2019-01-14T12:17:59.802Z,0.78
2019-01-14T12:20:29.480Z,0.89
2019-01-14T12:22:59.240Z,0.93
2019-01-14T12:25:29.984Z,0.91
2019-01-14T12:27:59.588Z,0.93
2019-01-14T12:30:35.582Z,0.99
2019-01-14T12:33:05.341Z,1.06
2019-01-14T12:35:34.979Z,1.10
2019-01-14T12:38:04.483Z,1.03
2019-01-14T12:40:34.343Z,0.86
2019-01-14T12:43:03.897Z,0.40
2019-01-14T12:45:33.617Z,0.47
2019-01-14T12:48:03.164Z,0.53
2019-01-14T12:50:32.771Z,0.51
2019-01-14T12:53:02.357Z,0.34
2019-01-14T12:55:32.038Z,0.33
2019-01-14T12:58:01.654Z,0.32
2019-01-14T13:00:32.021Z,0.31
2019-01-14T13:03:02.127Z,0.32
2019-01-14T13:05:31.750Z,0.26
2019-01-14T13:08:01.466Z,0.14
2019-01-14T13:10:31.311Z,0.13
2019-01-14T13:13:01.117Z,0.29
2019-01-14T13:15:30.930Z,0.34
2019-01-14T13:18:05.242Z,0.50
2019-01-14T13:20:30.252Z,0.61
2019-01-14T13:22:59.980Z,0.68
2019-01-14T13:25:29.501Z,0.62
2019-01-14T13:27:59.096Z,0.51
2019-01-14T13:30:30.410Z,0.59
2019-01-14T13:33:00.531Z,0.63
2019-01-14T13:35:30.425Z,0.97
2019-01-14T13:38:00.374Z,0.91
2019-01-14T13:40:30.051Z,0.88
2019-01-14T13:42:59.717Z,0.86
2019-01-14T13:45:29.358Z,0.92
2019-01-14T13:47:59.056Z,0.94
2019-01-14T13:50:29.021Z,0.91
2019-01-14T13:52:58.779Z,1.06
2019-01-14T13:55:28.569Z,0.98
2019-01-14T13:58:00.171Z,0.85
2019-01-14T14:00:29.447Z,0.81
2019-01-14T14:02:59.159Z,0.83
2019-01-14T14:05:29.047Z,0.89
2019-01-14T14:07:58.718Z,0.92
2019-01-14T14:10:30.615Z,0.93
2019-01-14T14:13:00.474Z,0.89
2019-01-14T14:15:30.229Z,0.92
2019-01-14T14:18:00.179Z,0.98
2019-01-14T14:20:29.887Z,0.83
2019-01-14T14:22:59.702Z,0.95
2019-01-14T14:25:29.265Z,0.90
2019-01-14T14:27:59.077Z,0.64
2019-01-14T14:30:34.320Z,0.52
2019-01-14T14:33:03.894Z,0.47
2019-01-14T14:35:33.346Z,0.46
2019-01-14T14:38:02.865Z,0.52
2019-01-14T14:40:32.659Z,0.52
2019-01-14T14:43:02.300Z,0.55
2019-01-14T14:45:31.974Z,0.64
2019-01-14T14:48:01.640Z,0.63
2019-01-14T14:50:31.210Z,0.68
2019-01-14T14:53:01.036Z,0.67
2019-01-14T14:55:30.720Z,0.66
2019-01-14T14:58:00.506Z,0.65
2019-01-14T15:00:30.293Z,0.66
2019-01-14T15:03:00.119Z,0.62
2019-01-14T15:05:29.752Z,0.66
2019-01-14T15:07:59.749Z,0.74
2019-01-14T15:10:29.561Z,0.71
2019-01-14T15:12:59.417Z,0.64
2019-01-14T15:15:29.212Z,0.66
2019-01-14T15:17:59.033Z,0.75
2019-01-14T15:20:28.728Z,0.79
2019-01-14T15:23:00.191Z,0.77
2019-01-14T15:25:29.902Z,0.81
2019-01-14T15:27:59.468Z,0.74
2019-01-14T15:30:30.728Z,0.71
2019-01-14T15:33:00.489Z,0.76
2019-01-14T15:35:30.139Z,0.64
2019-01-14T15:37:59.839Z,0.61
2019-01-14T15:40:29.618Z,0.64
2019-01-14T15:42:59.270Z,0.58
2019-01-14T15:45:29.173Z,0.57
2019-01-14T15:47:58.884Z,0.55
2019-01-14T15:50:28.691Z,0.46
2019-01-14T15:52:58.422Z,0.54
2019-01-14T15:55:28.309Z,0.64
2019-01-14T15:57:58.088Z,0.46
2019-01-14T16:00:27.862Z,0.31
2019-01-14T16:02:57.503Z,0.38
2019-01-14T16:05:27.102Z,0.38
2019-01-14T16:07:56.910Z,0.41
2019-01-14T16:10:26.895Z,0.45
2019-01-14T16:12:56.439Z,0.48
2019-01-14T16:15:26.398Z,0.54
2019-01-14T16:17:56.140Z,0.54
2019-01-14T16:20:27.112Z,0.54
2019-01-14T17:00:34.835Z,0.39
2019-01-14T17:03:04.390Z,0.36
2019-01-14T17:05:35.520Z,0.53
2019-01-14T17:08:03.583Z,0.50
2019-01-14T17:10:33.217Z,0.35
2019-01-14T17:13:02.781Z,0.22
2019-01-14T17:15:32.655Z,0.22
2019-01-14T17:18:02.201Z,0.19
2019-01-14T17:20:32.010Z,0.24
2019-01-14T17:23:01.588Z,0.31
2019-01-14T17:25:31.363Z,0.43
2019-01-14T17:45:23.141Z,0.20
2019-01-14T17:47:52.966Z,0.20
2019-01-14T17:50:22.569Z,0.20
2019-01-14T17:52:52.203Z,0.26
2019-01-14T18:12:44.292Z,0.37
2019-01-14T18:15:14.511Z,0.45
2019-01-14T18:17:44.305Z,0.48
2019-01-14T18:20:16.140Z,0.54
2019-01-14T18:22:45.891Z,0.49
2019-01-14T18:25:15.864Z,0.49
2019-01-14T18:27:45.984Z,0.51
2019-01-14T18:30:18.505Z,0.49
2019-01-14T18:32:48.170Z,0.43
2019-01-14T18:35:17.852Z,0.45
2019-01-14T18:55:09.383Z,0.42
2019-01-14T18:57:40.015Z,0.42
2019-01-14T19:17:33.053Z,0.19
2019-01-14T19:20:03.838Z,0.24
2019-01-14T19:22:36.671Z,0.29
2019-01-14T19:25:09.943Z,0.39
2019-01-14T19:27:40.719Z,0.49
2019-01-14T19:30:13.185Z,0.68
2019-01-14T19:50:19.701Z,1.02
2019-01-14T19:52:50.318Z,1.03
2019-01-14T19:55:20.976Z,1.08
2019-01-14T19:57:51.248Z,1.12
2019-01-14T20:00:26.024Z,1.14
2019-01-14T20:02:57.837Z,1.17
2019-01-14T20:05:32.009Z,1.14
2019-01-14T20:25:24.630Z,1.19
2019-01-14T20:27:56.183Z,1.18
2019-01-14T20:59:41.688Z,0.92
2019-01-14T21:19:33.913Z,0.73
2019-01-14T21:22:03.633Z,0.69
2019-01-14T21:24:33.246Z,0.64
2019-01-14T21:27:02.731Z,0.69
2019-01-14T21:29:32.551Z,0.63
2019-01-14T21:49:23.711Z,0.25
2019-01-14T21:51:53.388Z,0.18
2019-01-14T21:54:22.880Z,0.12
2019-01-14T21:56:52.320Z,0.14
2019-01-14T22:16:43.486Z,-0.08
2019-01-14T22:19:13.404Z,-0.15
2019-01-14T22:21:43.110Z,-0.17
2019-01-14T22:24:12.554Z,-0.21
2019-01-14T22:26:42.051Z,-0.17
2019-01-14T22:29:11.679Z,-0.21
2019-01-14T22:49:02.325Z,-0.38
2019-01-14T22:51:32.109Z,-0.39
2019-01-14T22:54:01.504Z,-0.36
2019-01-14T23:13:52.604Z,-0.53
2019-01-14T23:16:22.003Z,-0.53
2019-01-14T23:18:51.511Z,-0.48
2019-01-14T23:21:21.008Z,-0.50
2019-01-14T23:23:50.515Z,-0.51
2019-01-14T23:43:41.796Z,-0.62
